sensor_id;sensor_type;location;lat;lon;timestamp;P1;durP1;ratioP1;P2;durP2;ratioP2
60975;SDS011;46849;48.154;17.042;2022-11-12T00:02:05;14.32;;;7.70;;
60975;SDS011;46849;48.154;17.042;2022-11-12T00:05:11;8.75;;;5.50;;
60975;SDS011;46849;48.154;17.042;2022-11-12T00:08:14;11.38;;;6.80;;
60975;SDS011;46849;48.154;17.042;2022-11-12T00:11:20;10.02;;;6.47;;
60975;SDS011;46849;48.154;17.042;2022-11-12T00:14:23;9.73;;;7.13;;
60975;SDS011;46849;48.154;17.042;2022-11-12T00:17:28;11.80;;;7.82;;
60975;SDS011;46849;48.154;17.042;2022-11-12T00:20:31;10.48;;;6.50;;
60975;SDS011;46849;48.154;17.042;2022-11-12T00:23:35;11.88;;;6.65;;
60975;SDS011;46849;48.154;17.042;2022-11-12T00:26:38;11.60;;;7.20;;
60975;SDS011;46849;48.154;17.042;2022-11-12T00:29:42;11.23;;;6.80;;
60975;SDS011;46849;48.154;17.042;2022-11-12T00:32:46;10.82;;;7.00;;
60975;SDS011;46849;48.154;17.042;2022-11-12T00:35:49;8.07;;;5.90;;
60975;SDS011;46849;48.154;17.042;2022-11-12T00:38:52;10.80;;;6.55;;
60975;SDS011;46849;48.154;17.042;2022-11-12T00:41:56;12.65;;;7.10;;
60975;SDS011;46849;48.154;17.042;2022-11-12T00:45:01;15.30;;;7.43;;
60975;SDS011;46849;48.154;17.042;2022-11-12T00:48:04;12.70;;;7.47;;
60975;SDS011;46849;48.154;17.042;2022-11-12T00:51:08;11.65;;;7.28;;
60975;SDS011;46849;48.154;17.042;2022-11-12T00:54:12;9.95;;;7.20;;
60975;SDS011;46849;48.154;17.042;2022-11-12T00:57:15;13.40;;;7.10;;
60975;SDS011;46849;48.154;17.042;2022-11-12T01:00:18;13.23;;;7.07;;
60975;SDS011;46849;48.154;17.042;2022-11-12T01:03:22;10.43;;;7.13;;
60975;SDS011;46849;48.154;17.042;2022-11-12T01:06:26;11.70;;;7.22;;
60975;SDS011;46849;48.154;17.042;2022-11-12T01:09:29;14.50;;;7.15;;
60975;SDS011;46849;48.154;17.042;2022-11-12T01:12:32;13.27;;;7.43;;
60975;SDS011;46849;48.154;17.042;2022-11-12T01:15:39;11.00;;;7.75;;
60975;SDS011;46849;48.154;17.042;2022-11-12T01:18:43;9.90;;;6.47;;
60975;SDS011;46849;48.154;17.042;2022-11-12T01:21:46;11.55;;;7.15;;
60975;SDS011;46849;48.154;17.042;2022-11-12T01:24:49;9.55;;;6.40;;
60975;SDS011;46849;48.154;17.042;2022-11-12T01:27:52;10.95;;;6.40;;
60975;SDS011;46849;48.154;17.042;2022-11-12T01:30:56;10.25;;;6.90;;
60975;SDS011;46849;48.154;17.042;2022-11-12T01:34:01;9.18;;;5.53;;
60975;SDS011;46849;48.154;17.042;2022-11-12T01:37:07;9.80;;;5.57;;
60975;SDS011;46849;48.154;17.042;2022-11-12T01:40:10;9.50;;;5.72;;
60975;SDS011;46849;48.154;17.042;2022-11-12T01:43:15;10.15;;;6.57;;
60975;SDS011;46849;48.154;17.042;2022-11-12T01:46:21;12.60;;;6.95;;
60975;SDS011;46849;48.154;17.042;2022-11-12T01:52:55;9.50;;;6.20;;
60975;SDS011;46849;48.154;17.042;2022-11-12T01:56:03;8.93;;;5.50;;
60975;SDS011;46849;48.154;17.042;2022-11-12T01:59:11;9.82;;;5.70;;
60975;SDS011;46849;48.154;17.042;2022-11-12T02:02:20;9.45;;;6.10;;
60975;SDS011;46849;48.154;17.042;2022-11-12T02:05:24;9.98;;;5.47;;
60975;SDS011;46849;48.154;17.042;2022-11-12T02:08:30;8.98;;;5.32;;
60975;SDS011;46849;48.154;17.042;2022-11-12T02:11:35;8.65;;;4.68;;
60975;SDS011;46849;48.154;17.042;2022-11-12T02:14:38;7.50;;;5.22;;
60975;SDS011;46849;48.154;17.042;2022-11-12T02:17:42;8.30;;;5.45;;
60975;SDS011;46849;48.154;17.042;2022-11-12T02:20:52;7.85;;;5.18;;
60975;SDS011;46849;48.154;17.042;2022-11-12T02:27:16;9.80;;;5.88;;
60975;SDS011;46849;48.154;17.042;2022-11-12T02:30:32;7.28;;;4.65;;
60975;SDS011;46849;48.154;17.042;2022-11-12T02:33:39;7.30;;;4.30;;
60975;SDS011;46849;48.154;17.042;2022-11-12T02:36:43;9.15;;;5.90;;
60975;SDS011;46849;48.154;17.042;2022-11-12T02:39:46;6.00;;;4.22;;
60975;SDS011;46849;48.154;17.042;2022-11-12T02:42:49;7.40;;;4.97;;
60975;SDS011;46849;48.154;17.042;2022-11-12T02:45:53;8.77;;;6.00;;
60975;SDS011;46849;48.154;17.042;2022-11-12T02:48:56;9.65;;;5.45;;
60975;SDS011;46849;48.154;17.042;2022-11-12T02:52:00;7.35;;;4.80;;
60975;SDS011;46849;48.154;17.042;2022-11-12T02:55:03;6.18;;;4.63;;
60975;SDS011;46849;48.154;17.042;2022-11-12T02:58:11;8.68;;;5.32;;
60975;SDS011;46849;48.154;17.042;2022-11-12T03:01:14;7.10;;;5.20;;
60975;SDS011;46849;48.154;17.042;2022-11-12T03:04:19;8.65;;;5.70;;
60975;SDS011;46849;48.154;17.042;2022-11-12T03:07:22;10.02;;;4.50;;
60975;SDS011;46849;48.154;17.042;2022-11-12T03:10:26;5.38;;;3.58;;
60975;SDS011;46849;48.154;17.042;2022-11-12T03:13:30;7.28;;;4.68;;
60975;SDS011;46849;48.154;17.042;2022-11-12T03:16:34;9.32;;;6.05;;
60975;SDS011;46849;48.154;17.042;2022-11-12T03:19:37;12.88;;;7.30;;
60975;SDS011;46849;48.154;17.042;2022-11-12T03:22:40;11.23;;;7.13;;
60975;SDS011;46849;48.154;17.042;2022-11-12T03:25:44;12.30;;;7.35;;
60975;SDS011;46849;48.154;17.042;2022-11-12T03:28:50;14.30;;;7.32;;
60975;SDS011;46849;48.154;17.042;2022-11-12T03:31:53;12.75;;;7.93;;
60975;SDS011;46849;48.154;17.042;2022-11-12T03:34:57;13.40;;;7.95;;
60975;SDS011;46849;48.154;17.042;2022-11-12T03:38:01;14.20;;;8.18;;
60975;SDS011;46849;48.154;17.042;2022-11-12T03:41:06;13.52;;;8.27;;
60975;SDS011;46849;48.154;17.042;2022-11-12T03:44:09;13.75;;;8.43;;
60975;SDS011;46849;48.154;17.042;2022-11-12T03:47:12;13.70;;;8.80;;
60975;SDS011;46849;48.154;17.042;2022-11-12T03:50:16;14.77;;;8.60;;
60975;SDS011;46849;48.154;17.042;2022-11-12T03:53:21;12.52;;;8.10;;
60975;SDS011;46849;48.154;17.042;2022-11-12T03:56:26;11.50;;;7.88;;
60975;SDS011;46849;48.154;17.042;2022-11-12T03:59:29;12.85;;;8.05;;
60975;SDS011;46849;48.154;17.042;2022-11-12T04:02:32;13.82;;;8.57;;
60975;SDS011;46849;48.154;17.042;2022-11-12T04:05:36;14.93;;;9.55;;
60975;SDS011;46849;48.154;17.042;2022-11-12T04:08:58;15.48;;;8.95;;
60975;SDS011;46849;48.154;17.042;2022-11-12T04:12:01;14.50;;;8.25;;
60975;SDS011;46849;48.154;17.042;2022-11-12T04:15:25;13.75;;;7.90;;
60975;SDS011;46849;48.154;17.042;2022-11-12T04:18:31;16.20;;;9.15;;
60975;SDS011;46849;48.154;17.042;2022-11-12T04:25:00;14.10;;;8.48;;
60975;SDS011;46849;48.154;17.042;2022-11-12T04:28:22;13.40;;;7.65;;
60975;SDS011;46849;48.154;17.042;2022-11-12T04:31:26;13.23;;;8.07;;
60975;SDS011;46849;48.154;17.042;2022-11-12T04:34:29;14.30;;;8.23;;
60975;SDS011;46849;48.154;17.042;2022-11-12T04:37:35;14.82;;;8.65;;
60975;SDS011;46849;48.154;17.042;2022-11-12T04:40:47;14.55;;;9.38;;
60975;SDS011;46849;48.154;17.042;2022-11-12T04:44:09;15.63;;;8.15;;
60975;SDS011;46849;48.154;17.042;2022-11-12T04:47:38;13.75;;;8.82;;
60975;SDS011;46849;48.154;17.042;2022-11-12T04:50:57;17.20;;;9.57;;
60975;SDS011;46849;48.154;17.042;2022-11-12T04:54:05;18.13;;;9.63;;
60975;SDS011;46849;48.154;17.042;2022-11-12T04:57:11;13.23;;;7.70;;
60975;SDS011;46849;48.154;17.042;2022-11-12T05:00:14;12.02;;;7.93;;
60975;SDS011;46849;48.154;17.042;2022-11-12T05:03:19;12.95;;;8.25;;
60975;SDS011;46849;48.154;17.042;2022-11-12T05:06:22;14.25;;;8.07;;
60975;SDS011;46849;48.154;17.042;2022-11-12T05:09:47;10.15;;;6.93;;
60975;SDS011;46849;48.154;17.042;2022-11-12T05:12:51;12.18;;;8.32;;
60975;SDS011;46849;48.154;17.042;2022-11-12T05:15:54;14.95;;;9.60;;
60975;SDS011;46849;48.154;17.042;2022-11-12T05:18:57;14.15;;;9.15;;
60975;SDS011;46849;48.154;17.042;2022-11-12T05:22:01;16.52;;;9.73;;
60975;SDS011;46849;48.154;17.042;2022-11-12T05:25:08;14.90;;;7.72;;
60975;SDS011;46849;48.154;17.042;2022-11-12T05:28:12;13.05;;;8.50;;
60975;SDS011;46849;48.154;17.042;2022-11-12T05:31:15;14.57;;;8.85;;
60975;SDS011;46849;48.154;17.042;2022-11-12T05:34:19;15.63;;;9.57;;
60975;SDS011;46849;48.154;17.042;2022-11-12T05:37:22;14.63;;;9.82;;
60975;SDS011;46849;48.154;17.042;2022-11-12T05:40:25;15.10;;;9.55;;
60975;SDS011;46849;48.154;17.042;2022-11-12T05:43:28;15.25;;;8.48;;
60975;SDS011;46849;48.154;17.042;2022-11-12T05:46:32;17.63;;;9.20;;
60975;SDS011;46849;48.154;17.042;2022-11-12T05:49:39;15.52;;;8.88;;
60975;SDS011;46849;48.154;17.042;2022-11-12T05:52:45;14.52;;;9.95;;
60975;SDS011;46849;48.154;17.042;2022-11-12T05:55:51;14.77;;;8.63;;
60975;SDS011;46849;48.154;17.042;2022-11-12T05:58:54;14.98;;;9.05;;
60975;SDS011;46849;48.154;17.042;2022-11-12T06:02:00;17.05;;;9.93;;
60975;SDS011;46849;48.154;17.042;2022-11-12T06:05:05;17.40;;;10.65;;
60975;SDS011;46849;48.154;17.042;2022-11-12T06:08:09;13.07;;;9.25;;
60975;SDS011;46849;48.154;17.042;2022-11-12T06:11:14;15.38;;;9.25;;
60975;SDS011;46849;48.154;17.042;2022-11-12T06:14:26;14.10;;;9.23;;
60975;SDS011;46849;48.154;17.042;2022-11-12T06:17:29;13.48;;;7.38;;
60975;SDS011;46849;48.154;17.042;2022-11-12T06:20:33;9.63;;;5.80;;
60975;SDS011;46849;48.154;17.042;2022-11-12T06:24:17;11.40;;;6.38;;
60975;SDS011;46849;48.154;17.042;2022-11-12T06:27:16;12.93;;;8.80;;
60975;SDS011;46849;48.154;17.042;2022-11-12T06:30:22;12.07;;;8.13;;
60975;SDS011;46849;48.154;17.042;2022-11-12T06:33:25;13.30;;;8.50;;
60975;SDS011;46849;48.154;17.042;2022-11-12T06:36:30;11.82;;;8.43;;
60975;SDS011;46849;48.154;17.042;2022-11-12T06:39:34;11.93;;;7.60;;
60975;SDS011;46849;48.154;17.042;2022-11-12T06:42:37;12.15;;;8.02;;
60975;SDS011;46849;48.154;17.042;2022-11-12T06:45:41;20.38;;;8.35;;
60975;SDS011;46849;48.154;17.042;2022-11-12T06:48:46;12.13;;;8.13;;
60975;SDS011;46849;48.154;17.042;2022-11-12T06:51:50;12.40;;;8.13;;
60975;SDS011;46849;48.154;17.042;2022-11-12T06:55:01;10.13;;;7.07;;
60975;SDS011;46849;48.154;17.042;2022-11-12T06:58:08;11.85;;;9.10;;
60975;SDS011;46849;48.154;17.042;2022-11-12T07:01:22;10.32;;;7.70;;
60975;SDS011;46849;48.154;17.042;2022-11-12T07:04:35;13.80;;;7.72;;
60975;SDS011;46849;48.154;17.042;2022-11-12T07:08:04;11.63;;;7.95;;
60975;SDS011;46849;48.154;17.042;2022-11-12T07:11:27;12.98;;;8.02;;
60975;SDS011;46849;48.154;17.042;2022-11-12T07:15:14;15.35;;;9.70;;
60975;SDS011;46849;48.154;17.042;2022-11-12T07:18:43;13.27;;;8.70;;
60975;SDS011;46849;48.154;17.042;2022-11-12T07:21:50;15.10;;;9.02;;
60975;SDS011;46849;48.154;17.042;2022-11-12T07:25:01;12.60;;;7.57;;
60975;SDS011;46849;48.154;17.042;2022-11-12T07:28:10;14.40;;;8.45;;
60975;SDS011;46849;48.154;17.042;2022-11-12T07:31:16;12.93;;;7.75;;
60975;SDS011;46849;48.154;17.042;2022-11-12T07:34:21;12.10;;;7.55;;
60975;SDS011;46849;48.154;17.042;2022-11-12T07:37:24;13.48;;;8.65;;
60975;SDS011;46849;48.154;17.042;2022-11-12T07:40:28;12.80;;;8.02;;
60975;SDS011;46849;48.154;17.042;2022-11-12T07:43:35;18.92;;;10.68;;
60975;SDS011;46849;48.154;17.042;2022-11-12T07:46:45;13.05;;;8.00;;
60975;SDS011;46849;48.154;17.042;2022-11-12T07:49:52;14.63;;;8.52;;
60975;SDS011;46849;48.154;17.042;2022-11-12T07:52:57;12.35;;;7.63;;
60975;SDS011;46849;48.154;17.042;2022-11-12T07:56:11;13.38;;;8.52;;
60975;SDS011;46849;48.154;17.042;2022-11-12T07:59:17;10.95;;;7.53;;
60975;SDS011;46849;48.154;17.042;2022-11-12T08:02:20;15.50;;;10.82;;
60975;SDS011;46849;48.154;17.042;2022-11-12T08:05:24;16.38;;;10.73;;
60975;SDS011;46849;48.154;17.042;2022-11-12T08:08:28;15.15;;;9.52;;
60975;SDS011;46849;48.154;17.042;2022-11-12T08:11:32;14.57;;;9.38;;
60975;SDS011;46849;48.154;17.042;2022-11-12T08:14:36;17.00;;;10.98;;
60975;SDS011;46849;48.154;17.042;2022-11-12T08:17:42;18.40;;;11.93;;
60975;SDS011;46849;48.154;17.042;2022-11-12T08:20:45;15.80;;;11.13;;
60975;SDS011;46849;48.154;17.042;2022-11-12T08:23:50;19.50;;;11.25;;
60975;SDS011;46849;48.154;17.042;2022-11-12T08:26:54;11.38;;;8.57;;
60975;SDS011;46849;48.154;17.042;2022-11-12T08:30:00;13.68;;;8.70;;
60975;SDS011;46849;48.154;17.042;2022-11-12T08:33:05;11.48;;;7.32;;
60975;SDS011;46849;48.154;17.042;2022-11-12T08:36:20;11.73;;;7.68;;
60975;SDS011;46849;48.154;17.042;2022-11-12T08:39:24;11.63;;;7.47;;
60975;SDS011;46849;48.154;17.042;2022-11-12T08:42:35;13.57;;;8.85;;
60975;SDS011;46849;48.154;17.042;2022-11-12T08:45:39;13.38;;;8.13;;
60975;SDS011;46849;48.154;17.042;2022-11-12T08:48:43;10.45;;;7.95;;
60975;SDS011;46849;48.154;17.042;2022-11-12T08:51:47;13.48;;;7.53;;
60975;SDS011;46849;48.154;17.042;2022-11-12T08:54:50;14.25;;;8.10;;
60975;SDS011;46849;48.154;17.042;2022-11-12T08:57:56;12.13;;;7.90;;
60975;SDS011;46849;48.154;17.042;2022-11-12T09:01:08;12.73;;;6.45;;
60975;SDS011;46849;48.154;17.042;2022-11-12T09:04:21;8.50;;;6.28;;
60975;SDS011;46849;48.154;17.042;2022-11-12T09:08:12;8.18;;;5.32;;
60975;SDS011;46849;48.154;17.042;2022-11-12T09:11:24;9.45;;;5.95;;
60975;SDS011;46849;48.154;17.042;2022-11-12T09:14:53;12.52;;;7.05;;
60975;SDS011;46849;48.154;17.042;2022-11-12T09:18:10;12.05;;;6.45;;
60975;SDS011;46849;48.154;17.042;2022-11-12T09:21:18;12.45;;;6.43;;
60975;SDS011;46849;48.154;17.042;2022-11-12T09:24:29;12.80;;;6.38;;
60975;SDS011;46849;48.154;17.042;2022-11-12T09:27:33;11.50;;;6.53;;
60975;SDS011;46849;48.154;17.042;2022-11-12T09:30:40;11.75;;;6.95;;
60975;SDS011;46849;48.154;17.042;2022-11-12T09:33:46;9.40;;;6.10;;
60975;SDS011;46849;48.154;17.042;2022-11-12T09:36:50;9.15;;;5.43;;
60975;SDS011;46849;48.154;17.042;2022-11-12T09:39:55;12.82;;;7.60;;
60975;SDS011;46849;48.154;17.042;2022-11-12T09:42:59;12.23;;;6.55;;
60975;SDS011;46849;48.154;17.042;2022-11-12T09:47:03;12.65;;;7.57;;
60975;SDS011;46849;48.154;17.042;2022-11-12T09:49:49;11.32;;;7.78;;
60975;SDS011;46849;48.154;17.042;2022-11-12T09:53:00;11.05;;;6.80;;
60975;SDS011;46849;48.154;17.042;2022-11-12T09:56:09;14.30;;;8.27;;
60975;SDS011;46849;48.154;17.042;2022-11-12T09:59:15;16.90;;;9.57;;
60975;SDS011;46849;48.154;17.042;2022-11-12T10:02:27;15.15;;;8.65;;
60975;SDS011;46849;48.154;17.042;2022-11-12T10:12:42;15.23;;;8.30;;
60975;SDS011;46849;48.154;17.042;2022-11-12T10:16:55;11.57;;;7.95;;
60975;SDS011;46849;48.154;17.042;2022-11-12T10:20:29;11.48;;;7.55;;
60975;SDS011;46849;48.154;17.042;2022-11-12T10:23:40;11.55;;;8.45;;
60975;SDS011;46849;48.154;17.042;2022-11-12T10:26:47;12.23;;;7.38;;
60975;SDS011;46849;48.154;17.042;2022-11-12T10:30:08;13.98;;;7.75;;
60975;SDS011;46849;48.154;17.042;2022-11-12T10:33:17;12.25;;;7.30;;
60975;SDS011;46849;48.154;17.042;2022-11-12T10:36:32;11.85;;;7.38;;
60975;SDS011;46849;48.154;17.042;2022-11-12T10:39:38;9.88;;;7.43;;
60975;SDS011;46849;48.154;17.042;2022-11-12T10:42:56;10.15;;;7.40;;
60975;SDS011;46849;48.154;17.042;2022-11-12T10:46:11;10.52;;;7.13;;
60975;SDS011;46849;48.154;17.042;2022-11-12T10:49:23;12.93;;;7.95;;
60975;SDS011;46849;48.154;17.042;2022-11-12T10:52:27;10.30;;;6.82;;
60975;SDS011;46849;48.154;17.042;2022-11-12T10:55:31;10.57;;;6.15;;
60975;SDS011;46849;48.154;17.042;2022-11-12T10:58:37;10.38;;;6.43;;
60975;SDS011;46849;48.154;17.042;2022-11-12T11:01:41;10.70;;;6.85;;
60975;SDS011;46849;48.154;17.042;2022-11-12T11:04:46;10.60;;;6.50;;
60975;SDS011;46849;48.154;17.042;2022-11-12T11:08:41;9.07;;;6.03;;
60975;SDS011;46849;48.154;17.042;2022-11-12T11:11:50;9.05;;;6.60;;
60975;SDS011;46849;48.154;17.042;2022-11-12T11:15:38;13.65;;;6.53;;
60975;SDS011;46849;48.154;17.042;2022-11-12T11:18:23;12.07;;;6.18;;
60975;SDS011;46849;48.154;17.042;2022-11-12T11:24:50;11.13;;;6.35;;
60975;SDS011;46849;48.154;17.042;2022-11-12T11:28:12;12.73;;;7.70;;
60975;SDS011;46849;48.154;17.042;2022-11-12T11:37:36;11.25;;;6.22;;
60975;SDS011;46849;48.154;17.042;2022-11-12T11:47:51;14.82;;;9.60;;
60975;SDS011;46849;48.154;17.042;2022-11-12T11:51:17;15.02;;;8.20;;
60975;SDS011;46849;48.154;17.042;2022-11-12T12:01:19;12.98;;;7.93;;
60975;SDS011;46849;48.154;17.042;2022-11-12T12:04:44;12.30;;;7.97;;
60975;SDS011;46849;48.154;17.042;2022-11-12T12:07:58;14.02;;;7.78;;
60975;SDS011;46849;48.154;17.042;2022-11-12T12:11:11;11.88;;;6.55;;
60975;SDS011;46849;48.154;17.042;2022-11-12T12:20:57;13.30;;;7.45;;
60975;SDS011;46849;48.154;17.042;2022-11-12T12:27:33;12.55;;;7.90;;
60975;SDS011;46849;48.154;17.042;2022-11-12T12:30:41;10.95;;;6.93;;
60975;SDS011;46849;48.154;17.042;2022-11-12T12:33:51;20.05;;;6.47;;
60975;SDS011;46849;48.154;17.042;2022-11-12T12:37:21;11.35;;;6.72;;
60975;SDS011;46849;48.154;17.042;2022-11-12T12:40:40;12.43;;;6.78;;
60975;SDS011;46849;48.154;17.042;2022-11-12T12:44:11;11.60;;;6.53;;
60975;SDS011;46849;48.154;17.042;2022-11-12T12:47:13;10.98;;;6.55;;
60975;SDS011;46849;48.154;17.042;2022-11-12T12:50:25;10.85;;;5.82;;
60975;SDS011;46849;48.154;17.042;2022-11-12T12:53:33;9.02;;;5.72;;
60975;SDS011;46849;48.154;17.042;2022-11-12T12:56:41;11.10;;;6.68;;
60975;SDS011;46849;48.154;17.042;2022-11-12T12:59:46;9.43;;;5.80;;
60975;SDS011;46849;48.154;17.042;2022-11-12T13:02:49;9.68;;;6.25;;
60975;SDS011;46849;48.154;17.042;2022-11-12T13:06:04;9.32;;;6.07;;
60975;SDS011;46849;48.154;17.042;2022-11-12T13:09:30;10.77;;;6.25;;
60975;SDS011;46849;48.154;17.042;2022-11-12T13:12:59;9.68;;;6.20;;
60975;SDS011;46849;48.154;17.042;2022-11-12T13:16:08;10.27;;;7.07;;
60975;SDS011;46849;48.154;17.042;2022-11-12T13:19:11;10.18;;;5.80;;
60975;SDS011;46849;48.154;17.042;2022-11-12T13:22:33;8.48;;;5.13;;
60975;SDS011;46849;48.154;17.042;2022-11-12T13:25:52;11.13;;;6.95;;
60975;SDS011;46849;48.154;17.042;2022-11-12T13:35:46;11.40;;;7.65;;
60975;SDS011;46849;48.154;17.042;2022-11-12T13:38:50;13.43;;;7.38;;
60975;SDS011;46849;48.154;17.042;2022-11-12T13:41:55;10.80;;;6.75;;
60975;SDS011;46849;48.154;17.042;2022-11-12T13:45:21;12.45;;;6.75;;
60975;SDS011;46849;48.154;17.042;2022-11-12T13:48:30;13.20;;;7.97;;
60975;SDS011;46849;48.154;17.042;2022-11-12T13:51:43;11.63;;;7.10;;
60975;SDS011;46849;48.154;17.042;2022-11-12T13:54:59;11.77;;;6.82;;
60975;SDS011;46849;48.154;17.042;2022-11-12T13:58:19;13.65;;;7.28;;
60975;SDS011;46849;48.154;17.042;2022-11-12T14:01:31;12.18;;;6.53;;
60975;SDS011;46849;48.154;17.042;2022-11-12T14:04:36;12.02;;;6.50;;
60975;SDS011;46849;48.154;17.042;2022-11-12T14:14:40;16.50;;;8.25;;
60975;SDS011;46849;48.154;17.042;2022-11-12T14:18:16;12.85;;;8.02;;
60975;SDS011;46849;48.154;17.042;2022-11-12T14:21:42;13.55;;;7.45;;
60975;SDS011;46849;48.154;17.042;2022-11-12T14:25:00;22.33;;;13.52;;
60975;SDS011;46849;48.154;17.042;2022-11-12T14:28:21;24.23;;;12.93;;
60975;SDS011;46849;48.154;17.042;2022-11-12T14:31:25;15.60;;;9.10;;
60975;SDS011;46849;48.154;17.042;2022-11-12T14:34:31;12.45;;;7.30;;
60975;SDS011;46849;48.154;17.042;2022-11-12T14:37:47;16.90;;;9.95;;
60975;SDS011;46849;48.154;17.042;2022-11-12T14:41:20;12.25;;;6.25;;
60975;SDS011;46849;48.154;17.042;2022-11-12T14:44:33;10.40;;;6.07;;
60975;SDS011;46849;48.154;17.042;2022-11-12T14:47:38;10.82;;;6.80;;
60975;SDS011;46849;48.154;17.042;2022-11-12T14:50:41;11.80;;;6.78;;
60975;SDS011;46849;48.154;17.042;2022-11-12T14:53:56;13.82;;;5.55;;
60975;SDS011;46849;48.154;17.042;2022-11-12T14:57:04;9.77;;;5.78;;
60975;SDS011;46849;48.154;17.042;2022-11-12T15:00:15;12.63;;;6.93;;
60975;SDS011;46849;48.154;17.042;2022-11-12T15:03:25;13.13;;;8.07;;
60975;SDS011;46849;48.154;17.042;2022-11-12T15:06:35;14.55;;;7.70;;
60975;SDS011;46849;48.154;17.042;2022-11-12T15:09:39;12.32;;;7.65;;
60975;SDS011;46849;48.154;17.042;2022-11-12T15:12:44;14.82;;;6.78;;
60975;SDS011;46849;48.154;17.042;2022-11-12T15:16:06;18.10;;;9.88;;
60975;SDS011;46849;48.154;17.042;2022-11-12T15:19:24;15.57;;;9.07;;
60975;SDS011;46849;48.154;17.042;2022-11-12T15:22:31;18.45;;;10.82;;
60975;SDS011;46849;48.154;17.042;2022-11-12T15:25:35;17.35;;;10.25;;
60975;SDS011;46849;48.154;17.042;2022-11-12T15:28:39;14.45;;;8.32;;
60975;SDS011;46849;48.154;17.042;2022-11-12T15:34:46;15.00;;;9.63;;
60975;SDS011;46849;48.154;17.042;2022-11-12T15:37:50;14.93;;;9.15;;
60975;SDS011;46849;48.154;17.042;2022-11-12T15:40:54;15.48;;;9.13;;
60975;SDS011;46849;48.154;17.042;2022-11-12T15:43:58;18.13;;;10.50;;
60975;SDS011;46849;48.154;17.042;2022-11-12T15:47:02;12.32;;;7.15;;
60975;SDS011;46849;48.154;17.042;2022-11-12T15:50:16;16.38;;;10.02;;
60975;SDS011;46849;48.154;17.042;2022-11-12T15:53:25;14.85;;;8.98;;
60975;SDS011;46849;48.154;17.042;2022-11-12T15:56:28;18.10;;;9.85;;
60975;SDS011;46849;48.154;17.042;2022-11-12T15:59:33;15.38;;;9.63;;
60975;SDS011;46849;48.154;17.042;2022-11-12T16:02:36;20.15;;;10.55;;
60975;SDS011;46849;48.154;17.042;2022-11-12T16:05:40;18.42;;;11.05;;
60975;SDS011;46849;48.154;17.042;2022-11-12T16:08:44;16.35;;;10.98;;
60975;SDS011;46849;48.154;17.042;2022-11-12T16:11:48;13.05;;;7.80;;
60975;SDS011;46849;48.154;17.042;2022-11-12T16:14:53;31.42;;;13.18;;
60975;SDS011;46849;48.154;17.042;2022-11-12T16:17:57;19.88;;;10.38;;
60975;SDS011;46849;48.154;17.042;2022-11-12T16:21:01;16.85;;;10.07;;
60975;SDS011;46849;48.154;17.042;2022-11-12T16:24:06;13.93;;;8.95;;
60975;SDS011;46849;48.154;17.042;2022-11-12T16:27:14;16.35;;;10.02;;
60975;SDS011;46849;48.154;17.042;2022-11-12T16:30:19;17.60;;;9.68;;
60975;SDS011;46849;48.154;17.042;2022-11-12T16:33:23;17.90;;;9.70;;
60975;SDS011;46849;48.154;17.042;2022-11-12T16:36:26;20.80;;;9.75;;
60975;SDS011;46849;48.154;17.042;2022-11-12T16:39:31;18.52;;;10.68;;
60975;SDS011;46849;48.154;17.042;2022-11-12T16:42:34;12.88;;;8.00;;
60975;SDS011;46849;48.154;17.042;2022-11-12T16:45:38;18.80;;;10.93;;
60975;SDS011;46849;48.154;17.042;2022-11-12T16:48:44;13.65;;;8.65;;
60975;SDS011;46849;48.154;17.042;2022-11-12T16:51:47;15.95;;;8.68;;
60975;SDS011;46849;48.154;17.042;2022-11-12T16:54:50;14.30;;;9.15;;
60975;SDS011;46849;48.154;17.042;2022-11-12T16:57:54;18.88;;;9.48;;
60975;SDS011;46849;48.154;17.042;2022-11-12T17:00:58;18.70;;;9.88;;
60975;SDS011;46849;48.154;17.042;2022-11-12T17:04:02;19.05;;;10.55;;
60975;SDS011;46849;48.154;17.042;2022-11-12T17:07:05;22.65;;;11.98;;
60975;SDS011;46849;48.154;17.042;2022-11-12T17:10:08;22.10;;;10.98;;
60975;SDS011;46849;48.154;17.042;2022-11-12T17:13:13;19.85;;;11.23;;
60975;SDS011;46849;48.154;17.042;2022-11-12T17:16:16;19.05;;;11.00;;
60975;SDS011;46849;48.154;17.042;2022-11-12T17:19:21;18.25;;;10.27;;
60975;SDS011;46849;48.154;17.042;2022-11-12T17:22:25;18.38;;;10.88;;
60975;SDS011;46849;48.154;17.042;2022-11-12T17:25:29;18.75;;;10.77;;
60975;SDS011;46849;48.154;17.042;2022-11-12T17:28:32;20.58;;;12.45;;
60975;SDS011;46849;48.154;17.042;2022-11-12T17:31:36;20.17;;;10.73;;
60975;SDS011;46849;48.154;17.042;2022-11-12T17:34:39;25.70;;;13.50;;
60975;SDS011;46849;48.154;17.042;2022-11-12T17:37:42;23.60;;;11.57;;
60975;SDS011;46849;48.154;17.042;2022-11-12T17:40:47;22.15;;;12.25;;
60975;SDS011;46849;48.154;17.042;2022-11-12T17:43:57;21.30;;;11.55;;
60975;SDS011;46849;48.154;17.042;2022-11-12T17:47:02;21.02;;;11.95;;
60975;SDS011;46849;48.154;17.042;2022-11-12T17:50:05;18.90;;;11.23;;
60975;SDS011;46849;48.154;17.042;2022-11-12T17:53:09;19.35;;;12.52;;
60975;SDS011;46849;48.154;17.042;2022-11-12T17:56:14;24.02;;;13.05;;
60975;SDS011;46849;48.154;17.042;2022-11-12T17:59:20;21.00;;;11.63;;
60975;SDS011;46849;48.154;17.042;2022-11-12T18:02:31;23.02;;;13.25;;
60975;SDS011;46849;48.154;17.042;2022-11-12T18:05:36;21.33;;;11.27;;
60975;SDS011;46849;48.154;17.042;2022-11-12T18:08:40;22.17;;;12.30;;
60975;SDS011;46849;48.154;17.042;2022-11-12T18:11:45;22.90;;;12.35;;
60975;SDS011;46849;48.154;17.042;2022-11-12T18:14:50;23.30;;;13.60;;
60975;SDS011;46849;48.154;17.042;2022-11-12T18:17:53;25.35;;;13.80;;
60975;SDS011;46849;48.154;17.042;2022-11-12T18:20:58;23.05;;;14.15;;
60975;SDS011;46849;48.154;17.042;2022-11-12T18:24:16;22.30;;;12.55;;
60975;SDS011;46849;48.154;17.042;2022-11-12T18:27:21;18.08;;;11.20;;
60975;SDS011;46849;48.154;17.042;2022-11-12T18:30:30;16.63;;;10.45;;
60975;SDS011;46849;48.154;17.042;2022-11-12T18:33:33;16.85;;;10.55;;
60975;SDS011;46849;48.154;17.042;2022-11-12T18:36:52;17.30;;;11.05;;
60975;SDS011;46849;48.154;17.042;2022-11-12T18:40:02;17.95;;;10.20;;
60975;SDS011;46849;48.154;17.042;2022-11-12T18:47:04;19.17;;;11.57;;
60975;SDS011;46849;48.154;17.042;2022-11-12T18:50:42;19.17;;;11.93;;
60975;SDS011;46849;48.154;17.042;2022-11-12T18:53:46;21.70;;;11.35;;
60975;SDS011;46849;48.154;17.042;2022-11-12T18:56:49;21.38;;;12.15;;
60975;SDS011;46849;48.154;17.042;2022-11-12T18:59:53;19.67;;;11.07;;
60975;SDS011;46849;48.154;17.042;2022-11-12T19:02:58;17.65;;;10.88;;
60975;SDS011;46849;48.154;17.042;2022-11-12T19:06:03;19.73;;;12.13;;
60975;SDS011;46849;48.154;17.042;2022-11-12T19:09:08;23.48;;;13.30;;
60975;SDS011;46849;48.154;17.042;2022-11-12T19:12:14;18.77;;;10.38;;
60975;SDS011;46849;48.154;17.042;2022-11-12T19:15:19;21.30;;;11.30;;
60975;SDS011;46849;48.154;17.042;2022-11-12T19:18:22;20.20;;;11.55;;
60975;SDS011;46849;48.154;17.042;2022-11-12T19:21:26;28.00;;;13.38;;
60975;SDS011;46849;48.154;17.042;2022-11-12T19:24:30;19.13;;;11.73;;
60975;SDS011;46849;48.154;17.042;2022-11-12T19:27:34;21.42;;;12.55;;
60975;SDS011;46849;48.154;17.042;2022-11-12T19:30:38;20.20;;;10.80;;
60975;SDS011;46849;48.154;17.042;2022-11-12T19:33:42;22.25;;;12.85;;